KDEC/DEC METAR and TAF weather

Enter ICAO airport designator
Station Type Date Time Source
KDEC METAR 2021/10/22 18:54 UTC NOAA

KDEC 221854Z 29008G17KT 10SM FEW027 BKN041 13/07 A3004 RMK AO2 SLP175 T01280067


Station Type Date Time Source
KDEC Decoded METAR 2021/10/22 18:54 UTC NOAA

DECATUR AIRPORT, IL, United States (KDEC) 39-50N 88-52W 207M
Oct 22, 2021 - 02:54 PM EDT / 2021.10.22 1854 UTC
Wind: from the WNW (290 degrees) at 9 MPH (8 KT) gusting to 20 MPH (17 KT):0
Visibility: 10 mile(s):0
Sky conditions: mostly cloudy
Temperature: 55.0 F (12.8 C)
Dew Point: 44.1 F (6.7 C)
Relative Humidity: 66%
Pressure (altimeter): 30.04 in. Hg (1017 hPa)
ob: KDEC 221854Z 29008G17KT 10SM FEW027 BKN041 13/07 A3004 RMK AO2 SLP175 T01280067
cycle: 19

Station Type Date Time Source
KDEC TAF 2021/10/22 18:36 UTC NOAA

TAF KDEC 221735Z 2218/2318 31007KT P6SM BKN025
FM222000 29007KT P6SM BKN040

Example: see airport list